createdAt,value
2018-07-25T00:04:41.203Z,100004.06
2018-07-25T00:09:44.926Z,100010.16
2018-07-25T00:14:48.512Z,100001.06
2018-07-25T00:19:51.937Z,99998.79
2018-07-25T00:24:55.449Z,99999.00
2018-07-25T00:29:59.089Z,100002.70
2018-07-25T00:35:02.725Z,99999.55
2018-07-25T00:40:06.445Z,99990.39
2018-07-25T00:45:09.937Z,99997.22
2018-07-25T00:50:13.457Z,99996.08
2018-07-25T00:55:16.984Z,99990.67
2018-07-25T01:00:20.608Z,99989.69
2018-07-25T01:05:24.219Z,99989.97
2018-07-25T01:10:27.785Z,99987.01
2018-07-25T01:15:31.337Z,99993.28
2018-07-25T01:20:34.896Z,99985.95
2018-07-25T01:25:38.458Z,99984.42
2018-07-25T01:30:41.981Z,99986.70
2018-07-25T01:35:45.457Z,99982.41
2018-07-25T01:40:49.042Z,99990.14
2018-07-25T01:45:52.577Z,99994.25
2018-07-25T01:50:56.083Z,99999.97
2018-07-25T01:55:59.578Z,99992.33
2018-07-25T02:01:03.060Z,99991.45
2018-07-25T02:06:06.541Z,99986.30
2018-07-25T02:11:10.146Z,99993.76
2018-07-25T02:16:13.644Z,99989.66
2018-07-25T02:21:17.433Z,99986.51
2018-07-25T02:26:20.989Z,99991.63
2018-07-25T02:31:24.441Z,99994.66
2018-07-25T02:36:27.905Z,99995.91
2018-07-25T02:41:31.723Z,99997.23
2018-07-25T02:46:35.459Z,99997.58
2018-07-25T02:51:38.921Z,99992.63
2018-07-25T02:56:42.414Z,99992.63
2018-07-25T03:01:46.111Z,99997.73
2018-07-25T03:06:49.598Z,100004.11
2018-07-25T03:11:53.057Z,100011.91
2018-07-25T03:16:56.900Z,100019.61
2018-07-25T03:22:00.573Z,100019.00
2018-07-25T03:27:04.226Z,100024.27
2018-07-25T03:32:07.881Z,100009.08
2018-07-25T03:37:11.492Z,100020.70
2018-07-25T03:42:15.251Z,100021.64
2018-07-25T03:47:19.137Z,100022.95
2018-07-25T03:52:22.893Z,100019.38
2018-07-25T03:57:26.514Z,100026.52
2018-07-25T04:02:30.162Z,100022.07
2018-07-25T04:07:33.662Z,100020.70
2018-07-25T04:12:37.212Z,100026.93
2018-07-25T04:17:48.814Z,100027.02
2018-07-25T04:22:52.481Z,100028.45
2018-07-25T04:27:55.959Z,100023.37
2018-07-25T04:32:59.459Z,100041.09
2018-07-25T04:38:03.003Z,100041.72
2018-07-25T04:43:06.741Z,100042.42
2018-07-25T04:48:10.204Z,100053.03
2018-07-25T04:53:13.890Z,100058.05
2018-07-25T04:58:17.349Z,100061.16
2018-07-25T05:03:20.910Z,100047.47
2018-07-25T05:08:24.550Z,100067.82
2018-07-25T05:13:28.927Z,100071.25
2018-07-25T05:18:32.442Z,100071.52
2018-07-25T05:23:36.343Z,100077.11
2018-07-25T05:28:39.824Z,100075.13
2018-07-25T05:33:43.282Z,100082.27
2018-07-25T05:38:46.946Z,100081.06
2018-07-25T05:43:50.822Z,100086.52
2018-07-25T05:48:54.471Z,100087.95
2018-07-25T05:53:58.109Z,100091.56
2018-07-25T05:59:02.028Z,100091.64
2018-07-25T06:04:05.550Z,100096.38
2018-07-25T06:09:10.173Z,100093.83
2018-07-25T06:14:13.627Z,100093.81
2018-07-25T06:19:17.240Z,100095.46
2018-07-25T06:24:20.672Z,100094.65
2018-07-25T06:29:24.150Z,100095.25
2018-07-25T06:34:27.629Z,100085.36
2018-07-25T06:39:31.228Z,100091.39
2018-07-25T06:44:34.742Z,100093.66
2018-07-25T06:49:38.204Z,100098.48
2018-07-25T06:54:41.753Z,100103.73
2018-07-25T06:59:45.641Z,100112.00
2018-07-25T07:04:49.271Z,100109.92
2018-07-25T07:09:52.701Z,100112.27
2018-07-25T07:14:56.413Z,100110.26
2018-07-25T07:20:00.121Z,100115.84
2018-07-25T07:25:04.164Z,100115.95
2018-07-25T07:30:08.434Z,100115.52
2018-07-25T07:35:12.063Z,100118.63
2018-07-25T07:40:15.830Z,100118.81
2018-07-25T07:45:19.298Z,100117.05
2018-07-25T07:50:23.063Z,100119.47
2018-07-25T07:55:26.998Z,100126.72
2018-07-25T08:00:30.459Z,100127.38
2018-07-25T08:05:34.131Z,100119.04
2018-07-25T08:10:37.718Z,100120.36
2018-07-25T08:15:41.326Z,100121.66
2018-07-25T08:20:44.886Z,100113.67
2018-07-25T08:25:48.344Z,100122.55
2018-07-25T08:30:52.108Z,100113.78
2018-07-25T08:35:55.832Z,100124.84
2018-07-25T08:40:59.456Z,100120.14
2018-07-25T08:46:03.381Z,100120.03
2018-07-25T08:51:07.194Z,100124.75
2018-07-25T08:56:10.733Z,100124.31
2018-07-25T09:01:14.217Z,100123.44
2018-07-25T09:06:17.919Z,100125.09
2018-07-25T09:11:26.568Z,100117.84
2018-07-25T09:16:30.862Z,100125.75
2018-07-25T09:21:34.639Z,100123.32
2018-07-25T09:26:38.364Z,100117.97
2018-07-25T09:31:42.181Z,100120.03
2018-07-25T09:36:45.705Z,100110.05
2018-07-25T09:41:49.213Z,100108.63
2018-07-25T09:46:53.218Z,100111.67
2018-07-25T09:51:56.654Z,100113.42
2018-07-25T09:57:00.385Z,100110.80
2018-07-25T10:02:04.151Z,100108.49
2018-07-25T10:07:07.686Z,100103.01
2018-07-25T10:12:11.259Z,100105.20
2018-07-25T10:17:14.753Z,100096.97
2018-07-25T10:22:18.672Z,100095.11
2018-07-25T10:27:22.348Z,100091.13
2018-07-25T10:32:25.920Z,100095.88
2018-07-25T10:37:29.728Z,100087.98
2018-07-25T10:42:33.322Z,100093.13
2018-07-25T10:47:37.045Z,100085.02
2018-07-25T10:52:40.575Z,100084.44
2018-07-25T10:57:44.042Z,100076.84
2018-07-25T11:02:47.566Z,100075.33
2018-07-25T11:07:51.104Z,100067.84
2018-07-25T11:12:54.621Z,100068.17
2018-07-25T11:17:58.316Z,100066.97
2018-07-25T11:23:02.000Z,100068.20
2018-07-25T11:28:05.805Z,100065.42
2018-07-25T11:33:09.261Z,100065.76
2018-07-25T11:38:12.804Z,100062.47
2018-07-25T11:43:16.438Z,100053.44
2018-07-25T11:48:19.914Z,100054.56
2018-07-25T11:53:23.527Z,100044.47
2018-07-25T11:58:27.612Z,100034.59
2018-07-25T12:03:31.135Z,100037.44
2018-07-25T12:08:34.688Z,100030.50
2018-07-25T12:13:38.741Z,100035.47
2018-07-25T12:18:42.613Z,100029.95
2018-07-25T12:23:46.078Z,100030.72
2018-07-25T12:28:49.768Z,100033.56
2018-07-25T12:33:53.345Z,100039.28
2018-07-25T12:38:57.166Z,100024.05
2018-07-25T12:44:00.722Z,100014.91
2018-07-25T12:49:04.375Z,100019.08
2018-07-25T12:54:08.045Z,100008.55
2018-07-25T12:59:11.865Z,99998.22
2018-07-25T13:04:15.563Z,99995.55
2018-07-25T13:09:19.242Z,99994.45
2018-07-25T13:14:22.695Z,99997.09
2018-07-25T13:19:26.365Z,99992.38
2018-07-25T13:24:29.958Z,99993.14
2018-07-25T13:29:33.707Z,99984.16
2018-07-25T13:34:37.209Z,99977.10
2018-07-25T13:39:40.762Z,99977.87
2018-07-25T13:44:44.355Z,99967.22
2018-07-25T13:49:48.205Z,99966.45
2018-07-25T13:54:52.010Z,99956.68
2018-07-25T13:59:55.802Z,99948.12
2018-07-25T14:04:59.836Z,99951.20
2018-07-25T14:10:04.349Z,99944.34
2018-07-25T14:15:08.085Z,99943.73
2018-07-25T14:20:11.949Z,99943.50
2018-07-25T14:25:16.116Z,99938.63
2018-07-25T14:30:20.032Z,99938.78
2018-07-25T14:35:24.170Z,99932.31
2018-07-25T14:40:28.094Z,99933.08
2018-07-25T14:45:31.605Z,99930.12
2018-07-25T14:50:35.168Z,99933.84
2018-07-25T14:55:38.693Z,99935.27
2018-07-25T15:00:42.211Z,99937.12
2018-07-25T15:05:46.045Z,99927.88
2018-07-25T15:10:50.168Z,99929.62
2018-07-25T15:15:54.341Z,99928.75
2018-07-25T15:20:57.989Z,99923.03
2018-07-25T15:26:01.554Z,99930.17
2018-07-25T15:31:06.006Z,99926.21
2018-07-25T15:36:10.421Z,99927.31
2018-07-25T15:41:14.373Z,99919.63
2018-07-25T15:46:18.300Z,99913.81
2018-07-25T15:51:21.827Z,99915.91
2018-07-25T15:56:25.430Z,99903.16
2018-07-25T16:01:29.210Z,99907.21
2018-07-25T16:06:33.400Z,99900.30
2018-07-25T16:11:37.301Z,99904.48
2018-07-25T16:16:40.989Z,99903.66
2018-07-25T16:21:44.497Z,99899.48
2018-07-25T16:26:48.270Z,99896.23
2018-07-25T16:31:52.178Z,99901.12
2018-07-25T16:36:55.708Z,99904.68
2018-07-25T16:42:00.043Z,99898.16
2018-07-25T16:47:03.912Z,99897.05
2018-07-25T16:52:07.683Z,99897.25
2018-07-25T16:57:11.581Z,99901.61
2018-07-25T17:02:15.092Z,99894.79
2018-07-25T17:07:19.028Z,99895.23
2018-07-25T17:12:23.865Z,99899.49
2018-07-25T17:17:27.369Z,99893.16
2018-07-25T17:22:31.239Z,99899.05
2018-07-25T17:27:35.183Z,99899.70
2018-07-25T17:32:39.077Z,99903.01
2018-07-25T17:37:42.533Z,99911.02
2018-07-25T17:42:46.358Z,99912.45
2018-07-25T17:47:49.960Z,99918.58
2018-07-25T17:52:53.480Z,99927.86
2018-07-25T17:57:57.077Z,99934.72
2018-07-25T18:03:01.058Z,99935.14
2018-07-25T18:08:04.741Z,99934.72
2018-07-25T18:13:13.620Z,99949.22
2018-07-25T18:18:17.860Z,99948.80
2018-07-25T18:23:21.429Z,99958.34
2018-07-25T18:28:25.174Z,99963.05
2018-07-25T18:33:28.955Z,99973.74
2018-07-25T18:38:32.820Z,99981.26
2018-07-25T18:43:36.737Z,99978.72
2018-07-25T18:48:40.927Z,99979.38
2018-07-25T18:53:45.957Z,99982.12
2018-07-25T18:58:50.014Z,99985.94
2018-07-25T19:03:53.937Z,99988.03
2018-07-25T19:12:54.584Z,100003.34
2018-07-25T19:17:58.134Z,100013.18
2018-07-25T19:23:01.562Z,100014.77
2018-07-25T19:28:05.510Z,100023.23
2018-07-25T19:33:09.012Z,100033.23
2018-07-25T19:38:12.517Z,100040.42
2018-07-25T19:43:16.099Z,100042.53
2018-07-25T19:48:19.539Z,100042.47
2018-07-25T19:53:22.979Z,100042.44
2018-07-25T19:58:26.752Z,100047.17
2018-07-25T20:03:30.278Z,100045.48
2018-07-25T20:08:33.838Z,100056.91
2018-07-25T20:13:41.545Z,100061.59
2018-07-25T20:18:45.390Z,100075.91
2018-07-25T20:23:49.153Z,100073.38
2018-07-25T20:28:52.594Z,100073.94
2018-07-25T20:33:56.603Z,100076.03
2018-07-25T20:39:00.121Z,100077.63
2018-07-25T20:44:03.694Z,100077.41
2018-07-25T20:49:08.065Z,100082.94
2018-07-25T20:54:11.509Z,100082.62
2018-07-25T20:59:15.077Z,100087.94
2018-07-25T21:04:19.017Z,100086.23
2018-07-25T21:09:22.541Z,100092.99
2018-07-25T21:14:26.053Z,100090.88
2018-07-25T21:19:29.847Z,100093.70
2018-07-25T21:24:33.505Z,100107.98
2018-07-25T21:29:37.646Z,100112.45
2018-07-25T21:34:42.038Z,100109.81
2018-07-25T21:39:45.738Z,100116.73
2018-07-25T21:44:51.086Z,100112.28
2018-07-25T21:49:55.566Z,100112.70
2018-07-25T21:54:59.037Z,100109.30
2018-07-25T22:00:02.606Z,100111.17
2018-07-25T22:05:06.344Z,100115.13
2018-07-25T22:10:10.561Z,100116.89
2018-07-25T22:15:14.365Z,100109.96
2018-07-25T22:20:18.040Z,100117.22
2018-07-25T22:25:21.650Z,100116.38
2018-07-25T22:30:25.585Z,100113.93
2018-07-25T22:35:29.012Z,100105.63
2018-07-25T22:40:32.657Z,100114.59
2018-07-25T22:45:36.431Z,100114.73
2018-07-25T22:50:39.965Z,100123.31
2018-07-25T22:55:43.634Z,100125.17
2018-07-25T23:00:47.096Z,100122.98
2018-07-25T23:05:50.672Z,100123.23
2018-07-25T23:10:54.284Z,100127.52
2018-07-25T23:15:57.825Z,100124.77
2018-07-25T23:21:01.486Z,100129.94
2018-07-25T23:26:05.067Z,100130.27
2018-07-25T23:31:08.726Z,100125.98
2018-07-25T23:36:12.377Z,100127.41
2018-07-25T23:41:15.943Z,100127.30
2018-07-25T23:46:19.690Z,100129.27
2018-07-25T23:51:23.161Z,100124.22
2018-07-25T23:56:26.825Z,100122.17
